Time;durP1;ratioP1;P1;durP2;ratioP2;P2;SDS_P1;SDS_P2;PMS_P1;PMS_P2;Temp;Humidity;BMP_temperature;BMP_pressure;BME280_temperature;BME280_humidity;BME280_pressure;Samples;Min_cycle;Max_cycle;Signal;HPM_P1;HPM_P2
2022/03/10 00:01:31;;;;;;;43.38;24.58;;;;;;;;;;5045186;28;20037;-74
2022/03/10 00:03:57;;;;;;;39.00;25.33;;;;;;;;;;5046695;28;20056;-73
2022/03/10 00:06:23;;;;;;;52.75;30.58;;;;;;;;;;5035614;28;20080;-73
2022/03/10 00:08:49;;;;;;;54.30;30.05;;;;;;;;;;5040806;28;20127;-73
2022/03/10 00:11:15;;;;;;;50.38;29.33;;;;;;;;;;5036323;28;20034;-73
2022/03/10 00:13:41;;;;;;;47.92;26.95;;;;;;;;;;5039825;28;20377;-74
2022/03/10 00:16:07;;;;;;;49.03;26.88;;;;;;;;;;5045703;28;20112;-73
2022/03/10 00:18:33;;;;;;;47.10;27.10;;;;;;;;;;5033414;28;20083;-74
2022/03/10 00:20:59;;;;;;;42.47;25.15;;;;;;;;;;5051952;28;20096;-74
2022/03/10 00:23:25;;;;;;;39.20;24.48;;;;;;;;;;5051940;28;20053;-73
2022/03/10 00:25:51;;;;;;;38.05;23.67;;;;;;;;;;5038919;28;20052;-74
2022/03/10 00:28:18;;;;;;;38.88;23.08;;;;;;;;;;5038551;28;20691;-74
2022/03/10 00:30:44;;;;;;;44.22;25.67;;;;;;;;;;5036198;28;20768;-73
2022/03/10 00:33:10;;;;;;;43.53;25.33;;;;;;;;;;5035922;28;20024;-73
2022/03/10 00:35:36;;;;;;;40.47;22.65;;;;;;;;;;5044246;28;20025;-73
2022/03/10 00:38:02;;;;;;;37.97;22.00;;;;;;;;;;5051119;28;20452;-73
2022/03/10 00:40:28;;;;;;;40.53;22.52;;;;;;;;;;5051886;28;20873;-73
2022/03/10 00:42:55;;;;;;;40.60;22.27;;;;;;;;;;5050772;28;20036;-73
2022/03/10 00:45:21;;;;;;;38.92;23.15;;;;;;;;;;5047799;28;20036;-74
2022/03/10 00:47:47;;;;;;;39.67;22.08;;;;;;;;;;5032604;28;20037;-73
2022/03/10 00:50:13;;;;;;;43.28;23.23;;;;;;;;;;5051608;28;20033;-73
2022/03/10 00:52:43;;;;;;;40.22;23.00;;;;;;;;;;5051153;28;20036;-74
2022/03/10 00:55:09;;;;;;;38.75;23.02;;;;;;;;;;5051657;28;20037;-74
2022/03/10 00:57:35;;;;;;;69.25;32.97;;;;;;;;;;5040783;28;20037;-74
2022/03/10 01:00:01;;;;;;;65.05;29.50;;;;;;;;;;5041017;28;20625;-74
2022/03/10 01:02:30;;;;;;;50.20;25.73;;;;;;;;;;5030981;28;20029;-74
2022/03/10 01:04:56;;;;;;;86.75;35.25;;;;;;;;;;5045482;28;20475;-74
2022/03/10 01:07:22;;;;;;;58.20;30.38;;;;;;;;;;5051457;28;20094;-73
2022/03/10 01:09:48;;;;;;;49.05;25.33;;;;;;;;;;5034586;28;20037;-73
2022/03/10 01:12:14;;;;;;;55.55;28.00;;;;;;;;;;5031241;28;20044;-73
2022/03/10 01:14:40;;;;;;;45.38;21.38;;;;;;;;;;5033150;28;20087;-73
2022/03/10 01:17:06;;;;;;;43.95;23.10;;;;;;;;;;5030905;28;20510;-73
2022/03/10 01:19:32;;;;;;;56.70;28.77;;;;;;;;;;5030657;28;20064;-73
2022/03/10 01:21:58;;;;;;;50.33;27.02;;;;;;;;;;5050273;28;20049;-73
2022/03/10 01:24:24;;;;;;;46.10;23.73;;;;;;;;;;5050894;28;20032;-73
2022/03/10 01:26:51;;;;;;;39.90;21.02;;;;;;;;;;5050586;28;20033;-74
2022/03/10 01:29:17;;;;;;;39.05;21.60;;;;;;;;;;5032222;28;20112;-74
2022/03/10 01:31:43;;;;;;;28.95;18.13;;;;;;;;;;5050145;28;20033;-73
2022/03/10 01:34:09;;;;;;;72.93;36.78;;;;;;;;;;5050875;28;20025;-74
2022/03/10 01:36:35;;;;;;;70.75;38.17;;;;;;;;;;5049946;28;20033;-73
2022/03/10 01:39:04;;;;;;;61.45;33.50;;;;;;;;;;5050957;28;20769;-73
2022/03/10 01:41:32;;;;;;;54.47;31.90;;;;;;;;;;5037933;28;20044;-74
2022/03/10 01:44:08;;;;;;;51.67;30.98;;;;;;;;;;5042367;28;20048;-73
2022/03/10 01:46:34;;;;;;;80.03;49.97;;;;;;;;;;5046907;28;20455;-74
2022/03/10 01:49:01;;;;;;;81.80;51.80;;;;;;;;;;5039306;28;20392;-73
2022/03/10 01:51:27;;;;;;;59.35;36.30;;;;;;;;;;5030333;28;20033;-73
2022/03/10 01:53:53;;;;;;;38.05;25.25;;;;;;;;;;5044656;28;20360;-74
2022/03/10 01:56:20;;;;;;;43.63;25.33;;;;;;;;;;5039172;28;20116;-73
2022/03/10 01:58:47;;;;;;;36.72;24.65;;;;;;;;;;5041727;28;20037;-73
2022/03/10 02:01:14;;;;;;;30.70;19.35;;;;;;;;;;5050290;28;20033;-74
2022/03/10 02:03:40;;;;;;;27.92;16.85;;;;;;;;;;5038873;28;20032;-73
2022/03/10 02:06:07;;;;;;;29.35;17.92;;;;;;;;;;5030746;28;20709;-74
2022/03/10 02:11:19;;;;;;;30.67;17.55;;;;;;;;;;5033921;28;20071;-73
2022/03/10 02:13:45;;;;;;;26.40;15.88;;;;;;;;;;5034816;28;20120;-74
2022/03/10 02:18:56;;;;;;;34.30;17.27;;;;;;;;;;5037174;28;20120;-73
2022/03/10 02:21:23;;;;;;;26.52;16.45;;;;;;;;;;5042970;28;20029;-73
2022/03/10 02:23:49;;;;;;;30.60;17.50;;;;;;;;;;5042391;28;20495;-73
2022/03/10 02:26:15;;;;;;;28.88;16.65;;;;;;;;;;5033359;28;20041;-73
2022/03/10 02:28:45;;;;;;;26.63;16.00;;;;;;;;;;5036858;28;20029;-73
2022/03/10 02:31:12;;;;;;;34.42;18.80;;;;;;;;;;5046350;28;20033;-73
2022/03/10 02:33:38;;;;;;;33.70;17.73;;;;;;;;;;5037208;28;20037;-73
2022/03/10 02:36:04;;;;;;;26.70;15.77;;;;;;;;;;5036269;28;20071;-73
2022/03/10 02:38:31;;;;;;;27.08;16.55;;;;;;;;;;5042111;28;20108;-73
2022/03/10 02:40:57;;;;;;;29.05;16.77;;;;;;;;;;5048633;28;20069;-73
2022/03/10 02:43:23;;;;;;;28.77;18.30;;;;;;;;;;5048598;28;20033;-73
2022/03/10 02:45:50;;;;;;;33.72;19.42;;;;;;;;;;5048781;28;20043;-73
2022/03/10 02:48:16;;;;;;;33.88;20.98;;;;;;;;;;5048978;28;20123;-73
2022/03/10 02:50:43;;;;;;;30.55;19.42;;;;;;;;;;5035062;28;20042;-73
2022/03/10 02:53:10;;;;;;;37.97;20.52;;;;;;;;;;5037536;28;20029;-73
2022/03/10 02:55:37;;;;;;;32.80;19.05;;;;;;;;;;5049596;28;20033;-74
2022/03/10 02:58:03;;;;;;;40.15;21.80;;;;;;;;;;5045201;28;20083;-73
2022/03/10 03:00:29;;;;;;;40.03;24.50;;;;;;;;;;5049656;28;20040;-72
2022/03/10 03:02:55;;;;;;;38.00;22.15;;;;;;;;;;5048273;28;20047;-73
2022/03/10 03:05:21;;;;;;;37.45;22.25;;;;;;;;;;5049429;28;20032;-73
2022/03/10 03:07:51;;;;;;;44.67;24.63;;;;;;;;;;5048935;28;20066;-73
2022/03/10 03:10:17;;;;;;;37.55;22.60;;;;;;;;;;5049131;28;20487;-73
2022/03/10 03:12:44;;;;;;;36.13;20.95;;;;;;;;;;5047019;28;20077;-72
2022/03/10 03:15:10;;;;;;;29.77;17.70;;;;;;;;;;5047191;28;20348;-73
2022/03/10 03:17:36;;;;;;;28.77;17.02;;;;;;;;;;5048854;28;20025;-73
2022/03/10 03:20:04;;;;;;;30.50;18.00;;;;;;;;;;5040590;28;20087;-73
2022/03/10 03:22:30;;;;;;;28.90;16.38;;;;;;;;;;5048639;28;20124;-74
2022/03/10 03:24:56;;;;;;;27.35;16.50;;;;;;;;;;5048076;28;20115;-73
2022/03/10 03:27:22;;;;;;;30.30;15.85;;;;;;;;;;5048762;28;20037;-73
2022/03/10 03:29:48;;;;;;;26.90;16.27;;;;;;;;;;5045006;28;20721;-73
2022/03/10 03:32:14;;;;;;;27.58;16.13;;;;;;;;;;5048526;28;20034;-73
2022/03/10 03:34:40;;;;;;;28.25;16.33;;;;;;;;;;5044913;28;20071;-73
2022/03/10 03:37:07;;;;;;;27.92;17.15;;;;;;;;;;5046775;28;20033;-72
2022/03/10 03:39:33;;;;;;;28.02;15.65;;;;;;;;;;5027096;28;20033;-73
2022/03/10 03:41:59;;;;;;;30.20;18.48;;;;;;;;;;5038380;28;20371;-72
2022/03/10 03:44:25;;;;;;;28.88;17.33;;;;;;;;;;5048491;28;20033;-73
2022/03/10 03:46:51;;;;;;;26.67;16.60;;;;;;;;;;5048209;28;20036;-73
2022/03/10 03:49:17;;;;;;;33.95;18.70;;;;;;;;;;5029096;28;20040;-73
2022/03/10 03:51:43;;;;;;;33.58;17.67;;;;;;;;;;5042748;28;20037;-73
2022/03/10 03:54:09;;;;;;;33.08;19.77;;;;;;;;;;5045266;28;20060;-73
2022/03/10 03:56:37;;;;;;;47.85;23.38;;;;;;;;;;5048709;28;20037;-72
2022/03/10 03:59:03;;;;;;;46.55;23.80;;;;;;;;;;5041158;28;20025;-72
2022/03/10 04:01:29;;;;;;;38.58;21.60;;;;;;;;;;5039806;28;20040;-72
2022/03/10 04:03:56;;;;;;;41.92;23.20;;;;;;;;;;5055044;28;20462;-73
2022/03/10 04:06:22;;;;;;;37.50;19.77;;;;;;;;;;5044912;28;20044;-73
2022/03/10 04:08:48;;;;;;;32.17;18.42;;;;;;;;;;5043117;28;20065;-73
2022/03/10 04:11:14;;;;;;;30.00;16.75;;;;;;;;;;5030998;28;20041;-73
2022/03/10 04:13:40;;;;;;;29.17;17.08;;;;;;;;;;5047751;28;20032;-73
2022/03/10 04:16:07;;;;;;;32.00;20.13;;;;;;;;;;5044901;28;20025;-74
2022/03/10 04:18:33;;;;;;;34.97;20.58;;;;;;;;;;5029983;28;20069;-73
2022/03/10 04:20:59;;;;;;;35.22;19.15;;;;;;;;;;5033050;28;20100;-73
2022/03/10 04:23:26;;;;;;;35.90;20.63;;;;;;;;;;5037295;28;20080;-73
2022/03/10 04:25:53;;;;;;;41.17;20.05;;;;;;;;;;5047846;28;20033;-74
2022/03/10 04:28:19;;;;;;;33.40;19.17;;;;;;;;;;5047254;28;20060;-73
2022/03/10 04:30:45;;;;;;;29.48;16.27;;;;;;;;;;5037146;28;20025;-73
2022/03/10 04:33:11;;;;;;;31.60;16.10;;;;;;;;;;5048488;28;20033;-73
2022/03/10 04:35:37;;;;;;;25.77;14.35;;;;;;;;;;5041210;28;20034;-74
2022/03/10 04:38:03;;;;;;;28.15;14.45;;;;;;;;;;5028513;28;20119;-74
2022/03/10 04:40:30;;;;;;;29.48;18.42;;;;;;;;;;5035352;28;20471;-73
2022/03/10 04:42:56;;;;;;;30.88;18.08;;;;;;;;;;5038844;28;20029;-73
2022/03/10 04:45:22;;;;;;;30.92;16.95;;;;;;;;;;5037992;28;20055;-74
2022/03/10 04:47:48;;;;;;;30.42;18.52;;;;;;;;;;5048350;28;20047;-74
2022/03/10 04:50:15;;;;;;;27.95;14.68;;;;;;;;;;5040165;28;20033;-73
2022/03/10 04:52:41;;;;;;;30.27;17.80;;;;;;;;;;5048924;28;20115;-74
2022/03/10 04:55:08;;;;;;;32.00;16.52;;;;;;;;;;5031832;28;20468;-74
2022/03/10 04:57:34;;;;;;;28.40;15.80;;;;;;;;;;5032459;28;20060;-73
2022/03/10 05:00:01;;;;;;;31.48;16.00;;;;;;;;;;5051680;28;20796;-73
2022/03/10 05:02:27;;;;;;;29.13;16.17;;;;;;;;;;5048021;28;20041;-73
2022/03/10 05:04:53;;;;;;;29.90;16.45;;;;;;;;;;5047938;28;20087;-74
2022/03/10 05:07:18;;;;;;;30.83;15.48;;;;;;;;;;5038685;28;20510;-74
2022/03/10 05:09:44;;;;;;;50.95;22.63;;;;;;;;;;5043870;28;20033;-73
2022/03/10 05:12:11;;;;;;;53.92;28.60;;;;;;;;;;5038544;28;20433;-73
2022/03/10 05:14:37;;;;;;;45.88;26.35;;;;;;;;;;5035322;28;20033;-74
2022/03/10 05:17:03;;;;;;;41.50;23.58;;;;;;;;;;5033014;28;20043;-73
2022/03/10 05:19:29;;;;;;;36.72;19.98;;;;;;;;;;5043093;28;20068;-74
2022/03/10 05:21:55;;;;;;;33.60;18.42;;;;;;;;;;5051318;28;20045;-74
2022/03/10 05:24:21;;;;;;;37.08;18.88;;;;;;;;;;5046879;28;20033;-72
2022/03/10 05:26:47;;;;;;;34.97;19.40;;;;;;;;;;5050905;28;20044;-73
2022/03/10 05:29:13;;;;;;;39.08;20.55;;;;;;;;;;5033328;28;20034;-73
2022/03/10 05:31:40;;;;;;;42.28;21.50;;;;;;;;;;5047332;28;20095;-71
2022/03/10 05:34:07;;;;;;;35.97;20.27;;;;;;;;;;5050632;28;20345;-73
2022/03/10 05:36:34;;;;;;;31.45;17.70;;;;;;;;;;5050376;28;20025;-71
2022/03/10 05:39:00;;;;;;;26.63;15.52;;;;;;;;;;5038968;28;20036;-73
2022/03/10 05:41:26;;;;;;;30.63;16.50;;;;;;;;;;5036085;28;20029;-74
2022/03/10 05:43:52;;;;;;;31.27;17.02;;;;;;;;;;5041185;28;20107;-73
2022/03/10 05:46:18;;;;;;;31.50;15.93;;;;;;;;;;5038876;28;20032;-73
2022/03/10 05:48:44;;;;;;;37.40;22.77;;;;;;;;;;5050336;28;20074;-73
2022/03/10 05:51:10;;;;;;;43.15;22.75;;;;;;;;;;5046822;28;20040;-73
2022/03/10 05:53:36;;;;;;;42.90;22.35;;;;;;;;;;5042788;28;20060;-73
2022/03/10 05:56:03;;;;;;;43.38;23.13;;;;;;;;;;5050704;28;20043;-73
2022/03/10 05:58:29;;;;;;;39.22;21.40;;;;;;;;;;5045519;28;20373;-74
2022/03/10 06:00:55;;;;;;;41.28;19.15;;;;;;;;;;5035029;28;20036;-74
2022/03/10 06:03:21;;;;;;;31.17;17.27;;;;;;;;;;5049786;28;20029;-71
2022/03/10 06:05:47;;;;;;;35.17;18.75;;;;;;;;;;5049403;28;20171;-73
2022/03/10 06:08:13;;;;;;;37.17;17.55;;;;;;;;;;5051257;28;20133;-73
2022/03/10 06:10:39;;;;;;;34.22;19.00;;;;;;;;;;5034726;28;20033;-74
2022/03/10 06:13:06;;;;;;;35.50;16.88;;;;;;;;;;5050999;28;20037;-73
2022/03/10 06:15:32;;;;;;;37.22;18.05;;;;;;;;;;5039718;28;20037;-73
2022/03/10 06:17:58;;;;;;;33.67;18.27;;;;;;;;;;5050053;28;20025;-71
2022/03/10 06:20:25;;;;;;;33.08;18.27;;;;;;;;;;5047351;28;20037;-74
2022/03/10 06:22:51;;;;;;;39.17;19.50;;;;;;;;;;5033886;28;20373;-73
2022/03/10 06:25:17;;;;;;;33.30;18.05;;;;;;;;;;5039455;28;20041;-73
2022/03/10 06:27:43;;;;;;;32.85;17.75;;;;;;;;;;5044757;28;20075;-73
2022/03/10 06:30:09;;;;;;;33.75;16.38;;;;;;;;;;5047979;28;20068;-73
2022/03/10 06:32:35;;;;;;;39.13;20.55;;;;;;;;;;5046085;28;20039;-73
2022/03/10 06:35:01;;;;;;;32.75;17.60;;;;;;;;;;5041015;28;20040;-73
2022/03/10 06:37:27;;;;;;;40.35;20.52;;;;;;;;;;5041945;28;20025;-73
2022/03/10 06:39:53;;;;;;;36.13;20.33;;;;;;;;;;5048971;28;20061;-73
2022/03/10 06:42:19;;;;;;;35.72;18.83;;;;;;;;;;5042251;28;20029;-73
2022/03/10 06:44:46;;;;;;;33.83;17.67;;;;;;;;;;5044314;28;20074;-74
2022/03/10 06:47:15;;;;;;;45.05;21.33;;;;;;;;;;5042447;28;20033;-73
2022/03/10 06:49:41;;;;;;;45.45;21.00;;;;;;;;;;5048845;28;20551;-74
2022/03/10 06:52:10;;;;;;;43.00;21.20;;;;;;;;;;5046239;28;20032;-71
2022/03/10 06:54:37;;;;;;;40.92;20.13;;;;;;;;;;5043309;28;20430;-73
2022/03/10 06:57:03;;;;;;;61.30;27.98;;;;;;;;;;5047280;28;20107;-73
2022/03/10 06:59:29;;;;;;;41.55;22.92;;;;;;;;;;5047864;28;20151;-74
2022/03/10 07:01:55;;;;;;;41.03;18.13;;;;;;;;;;5046046;28;20104;-73
2022/03/10 07:04:21;;;;;;;40.83;19.70;;;;;;;;;;5046053;28;20037;-74
2022/03/10 07:06:47;;;;;;;41.50;18.77;;;;;;;;;;5048504;28;20033;-73
2022/03/10 07:09:13;;;;;;;45.90;19.30;;;;;;;;;;5047368;28;20033;-73
2022/03/10 07:11:39;;;;;;;47.03;21.92;;;;;;;;;;5041679;28;20856;-73
2022/03/10 07:14:05;;;;;;;41.65;21.38;;;;;;;;;;5048176;28;20778;-72
2022/03/10 07:16:32;;;;;;;47.40;22.27;;;;;;;;;;5043808;28;20037;-73
2022/03/10 07:18:58;;;;;;;50.65;23.20;;;;;;;;;;5044562;28;20041;-73
2022/03/10 07:21:24;;;;;;;56.83;24.02;;;;;;;;;;5045832;28;20025;-73
2022/03/10 07:23:50;;;;;;;45.55;23.42;;;;;;;;;;5045352;28;20044;-73
2022/03/10 07:26:16;;;;;;;51.40;22.33;;;;;;;;;;5048150;28;20035;-73
2022/03/10 07:28:43;;;;;;;51.17;23.20;;;;;;;;;;5044093;28;20079;-73
2022/03/10 07:31:09;;;;;;;48.33;21.80;;;;;;;;;;5046603;28;20032;-73
2022/03/10 07:33:35;;;;;;;49.30;23.15;;;;;;;;;;5048584;28;20036;-73
2022/03/10 07:36:01;;;;;;;49.97;22.40;;;;;;;;;;5048100;28;20167;-73
2022/03/10 07:38:27;;;;;;;40.92;20.65;;;;;;;;;;5043449;28;20090;-74
2022/03/10 07:40:54;;;;;;;42.85;22.75;;;;;;;;;;5041222;28;20029;-73
2022/03/10 07:43:20;;;;;;;40.53;21.23;;;;;;;;;;5043965;28;20116;-73
2022/03/10 07:45:47;;;;;;;42.15;21.83;;;;;;;;;;5044693;28;20365;-73
2022/03/10 07:48:13;;;;;;;40.80;21.27;;;;;;;;;;5036557;28;20115;-73
2022/03/10 07:50:39;;;;;;;38.70;20.40;;;;;;;;;;5047353;28;20388;-73
2022/03/10 07:53:05;;;;;;;44.47;20.13;;;;;;;;;;5042832;28;20912;-73
2022/03/10 07:55:31;;;;;;;36.85;19.73;;;;;;;;;;5038935;28;20112;-73
2022/03/10 07:57:57;;;;;;;36.42;20.70;;;;;;;;;;5036371;28;20060;-72
2022/03/10 08:00:23;;;;;;;42.95;22.45;;;;;;;;;;5041782;28;20041;-73
2022/03/10 08:02:49;;;;;;;32.72;19.95;;;;;;;;;;5041297;28;20032;-73
2022/03/10 08:05:15;;;;;;;36.42;20.17;;;;;;;;;;5037980;28;20048;-73
2022/03/10 08:07:41;;;;;;;38.35;20.45;;;;;;;;;;5037915;28;20051;-73
2022/03/10 08:10:08;;;;;;;40.50;21.58;;;;;;;;;;5044205;28;20460;-73
2022/03/10 08:12:35;;;;;;;33.47;18.60;;;;;;;;;;5024366;28;20025;-73
2022/03/10 08:15:01;;;;;;;38.05;19.58;;;;;;;;;;5043993;28;20045;-73
2022/03/10 08:17:28;;;;;;;39.72;20.45;;;;;;;;;;5044431;28;20032;-72
2022/03/10 08:19:54;;;;;;;36.72;20.40;;;;;;;;;;5043976;28;20033;-73
2022/03/10 08:22:21;;;;;;;39.95;18.98;;;;;;;;;;5040726;28;20060;-72
2022/03/10 08:24:47;;;;;;;34.58;18.88;;;;;;;;;;5036795;28;20048;-73
2022/03/10 08:27:15;;;;;;;37.63;17.55;;;;;;;;;;5036050;28;20029;-73
2022/03/10 08:29:41;;;;;;;32.83;18.08;;;;;;;;;;5032396;28;20040;-73
2022/03/10 08:32:08;;;;;;;32.13;17.58;;;;;;;;;;5043986;28;20037;-73
2022/03/10 08:34:35;;;;;;;32.50;16.75;;;;;;;;;;5042631;28;20722;-73
2022/03/10 08:37:01;;;;;;;37.33;16.73;;;;;;;;;;5042663;28;20040;-73
2022/03/10 08:39:27;;;;;;;30.27;15.23;;;;;;;;;;5044318;28;20713;-73
2022/03/10 08:41:53;;;;;;;31.15;15.77;;;;;;;;;;5046159;28;20048;-73
2022/03/10 08:44:20;;;;;;;33.22;15.02;;;;;;;;;;5051047;28;20029;-73
2022/03/10 08:46:46;;;;;;;29.63;14.52;;;;;;;;;;5043163;28;20041;-73
2022/03/10 08:49:17;;;;;;;26.92;14.48;;;;;;;;;;5048527;28;20043;-73
2022/03/10 08:51:44;;;;;;;33.10;15.48;;;;;;;;;;5042742;28;20044;-73
2022/03/10 08:54:11;;;;;;;33.55;16.60;;;;;;;;;;5043617;28;20041;-72
2022/03/10 08:56:37;;;;;;;38.72;17.23;;;;;;;;;;5042781;28;20112;-73
2022/03/10 08:59:03;;;;;;;37.28;17.48;;;;;;;;;;5051506;28;20069;-73
2022/03/10 09:01:29;;;;;;;33.55;16.83;;;;;;;;;;5035855;28;20114;-73
2022/03/10 09:03:55;;;;;;;34.50;17.35;;;;;;;;;;5035252;28;20629;-73
2022/03/10 09:06:21;;;;;;;22.33;11.60;;;;;;;;;;5050519;28;20033;-72
2022/03/10 09:08:48;;;;;;;26.15;12.25;;;;;;;;;;5051337;28;20028;-73
2022/03/10 09:11:14;;;;;;;27.52;12.73;;;;;;;;;;5049694;28;20080;-73
2022/03/10 09:13:43;;;;;;;23.27;12.23;;;;;;;;;;5049882;28;20057;-73
2022/03/10 09:16:09;;;;;;;24.30;13.93;;;;;;;;;;5036828;28;20025;-73
2022/03/10 09:18:35;;;;;;;25.65;14.05;;;;;;;;;;5040230;28;20029;-73
2022/03/10 09:21:02;;;;;;;27.58;14.02;;;;;;;;;;5046045;28;20033;-73
2022/03/10 09:23:28;;;;;;;28.98;15.00;;;;;;;;;;5048941;28;20055;-73
2022/03/10 09:25:54;;;;;;;31.30;16.35;;;;;;;;;;5045139;28;20078;-73
2022/03/10 09:28:20;;;;;;;30.98;16.42;;;;;;;;;;5043576;28;20068;-73
2022/03/10 09:30:46;;;;;;;31.80;15.80;;;;;;;;;;5050760;28;20108;-72
2022/03/10 09:33:12;;;;;;;29.80;16.38;;;;;;;;;;5035290;28;20043;-73
2022/03/10 09:35:38;;;;;;;30.13;16.92;;;;;;;;;;5031436;28;20037;-73
2022/03/10 09:38:04;;;;;;;32.10;15.18;;;;;;;;;;5038857;28;20024;-73
2022/03/10 09:40:30;;;;;;;31.77;16.95;;;;;;;;;;5043115;28;20117;-73
2022/03/10 09:42:56;;;;;;;32.38;17.15;;;;;;;;;;5049465;28;20029;-73
2022/03/10 09:45:23;;;;;;;29.08;15.88;;;;;;;;;;5043196;28;20037;-73
2022/03/10 09:47:49;;;;;;;30.58;16.40;;;;;;;;;;5046472;28;20035;-73
2022/03/10 09:50:16;;;;;;;33.95;17.13;;;;;;;;;;5040306;28;20041;-73
2022/03/10 09:52:43;;;;;;;29.67;16.08;;;;;;;;;;5044437;28;20044;-73
2022/03/10 09:55:10;;;;;;;26.98;16.52;;;;;;;;;;5042680;28;20774;-73
2022/03/10 09:57:39;;;;;;;27.05;15.23;;;;;;;;;;5048780;28;20062;-73
2022/03/10 10:00:08;;;;;;;28.13;14.88;;;;;;;;;;5042966;28;20037;-73
2022/03/10 10:02:34;;;;;;;30.65;16.90;;;;;;;;;;5046909;28;20032;-73
2022/03/10 10:05:00;;;;;;;25.63;13.10;;;;;;;;;;5042614;28;20033;-73
2022/03/10 10:07:27;;;;;;;31.90;16.42;;;;;;;;;;5044779;28;20033;-74
2022/03/10 10:09:55;;;;;;;25.38;15.48;;;;;;;;;;5045349;28;20584;-73
2022/03/10 10:12:24;;;;;;;24.58;14.75;;;;;;;;;;5037848;28;20035;-73
2022/03/10 10:14:50;;;;;;;29.20;14.98;;;;;;;;;;5040983;28;20072;-73
2022/03/10 10:17:17;;;;;;;26.75;14.77;;;;;;;;;;5041670;28;20048;-73
2022/03/10 10:19:44;;;;;;;27.90;14.85;;;;;;;;;;5032309;28;20041;-73
2022/03/10 10:22:20;;;;;;;24.95;15.13;;;;;;;;;;5049564;28;20831;-74
2022/03/10 10:24:53;;;;;;;27.98;15.02;;;;;;;;;;5040689;28;20036;-73
2022/03/10 10:27:24;;;;;;;24.88;12.82;;;;;;;;;;5046889;28;20033;-73
2022/03/10 10:29:51;;;;;;;27.20;13.82;;;;;;;;;;5039151;28;20112;-73
2022/03/10 10:32:25;;;;;;;21.60;11.32;;;;;;;;;;5033192;28;20033;-73
2022/03/10 10:35:01;;;;;;;27.58;13.00;;;;;;;;;;5043816;28;20062;-73
2022/03/10 10:37:27;;;;;;;22.92;11.65;;;;;;;;;;5042879;28;20029;-73
2022/03/10 10:39:56;;;;;;;30.40;12.63;;;;;;;;;;5045872;28;20384;-73
2022/03/10 10:42:25;;;;;;;24.15;13.10;;;;;;;;;;5039900;28;20033;-73
2022/03/10 10:44:51;;;;;;;26.35;14.25;;;;;;;;;;5044077;28;20120;-73
2022/03/10 10:47:17;;;;;;;24.35;14.32;;;;;;;;;;5046636;28;20083;-73
2022/03/10 10:49:43;;;;;;;30.58;14.45;;;;;;;;;;5048592;28;20068;-73
2022/03/10 10:52:13;;;;;;;25.63;13.30;;;;;;;;;;5048141;28;20040;-72
2022/03/10 10:54:39;;;;;;;26.27;14.60;;;;;;;;;;5043423;28;20621;-73
2022/03/10 10:57:06;;;;;;;26.85;14.60;;;;;;;;;;5048690;28;20033;-73
2022/03/10 10:59:35;;;;;;;25.45;14.48;;;;;;;;;;5046682;28;20084;-74
2022/03/10 11:02:11;;;;;;;28.27;13.85;;;;;;;;;;5043093;28;20036;-73
2022/03/10 11:04:38;;;;;;;26.42;14.10;;;;;;;;;;5043103;28;20041;-72
2022/03/10 11:07:05;;;;;;;25.90;13.95;;;;;;;;;;5039162;28;20036;-73
2022/03/10 11:09:32;;;;;;;25.80;15.10;;;;;;;;;;5042860;28;20037;-73
2022/03/10 11:11:58;;;;;;;27.73;14.90;;;;;;;;;;5046490;28;20086;-73
2022/03/10 11:14:24;;;;;;;24.25;14.68;;;;;;;;;;5039889;28;20033;-73
2022/03/10 11:16:51;;;;;;;23.80;14.20;;;;;;;;;;5032806;28;20033;-73
2022/03/10 11:19:25;;;;;;;25.83;14.00;;;;;;;;;;5035584;28;20055;-73
2022/03/10 11:21:51;;;;;;;29.67;15.05;;;;;;;;;;5037167;28;20587;-73
2022/03/10 11:24:19;;;;;;;30.00;15.13;;;;;;;;;;5041891;28;20033;-73
2022/03/10 11:26:56;;;;;;;28.67;15.00;;;;;;;;;;5043803;28;20057;-73
2022/03/10 11:29:23;;;;;;;28.40;15.43;;;;;;;;;;5040658;28;20025;-73
2022/03/10 11:31:50;;;;;;;28.15;15.70;;;;;;;;;;5047619;28;20124;-73
2022/03/10 11:34:36;;;;;;;25.02;15.32;;;;;;;;;;5046156;28;20382;-73
2022/03/10 11:37:09;;;;;;;27.13;14.95;;;;;;;;;;5034964;28;20179;-73
2022/03/10 11:39:52;;;;;;;28.02;15.82;;;;;;;;;;5042921;28;20025;-73
2022/03/10 11:42:29;;;;;;;25.48;15.30;;;;;;;;;;5044866;28;20037;-73
2022/03/10 11:45:08;;;;;;;29.33;16.45;;;;;;;;;;5032232;28;20696;-73
2022/03/10 11:47:35;;;;;;;27.33;14.55;;;;;;;;;;5033595;28;20041;-72
2022/03/10 11:50:19;;;;;;;26.55;13.57;;;;;;;;;;5036891;28;20030;-72
2022/03/10 11:52:50;;;;;;;28.23;15.38;;;;;;;;;;5045261;28;20071;-73
2022/03/10 11:55:16;;;;;;;25.73;15.57;;;;;;;;;;5038924;28;20029;-73
2022/03/10 11:57:45;;;;;;;26.95;15.80;;;;;;;;;;5045517;28;20375;-73
2022/03/10 12:00:15;;;;;;;33.70;16.67;;;;;;;;;;5038073;28;20029;-72
2022/03/10 12:02:43;;;;;;;35.08;20.88;;;;;;;;;;5050931;28;20708;-73
2022/03/10 12:05:09;;;;;;;33.53;21.60;;;;;;;;;;5037045;28;20415;-72
2022/03/10 12:07:35;;;;;;;39.22;22.80;;;;;;;;;;5045202;28;20087;-72
2022/03/10 12:10:03;;;;;;;38.67;22.23;;;;;;;;;;5033789;28;20025;-72
2022/03/10 12:12:30;;;;;;;39.47;20.50;;;;;;;;;;5040350;28;20041;-73
2022/03/10 12:14:57;;;;;;;39.22;23.20;;;;;;;;;;5049600;28;20128;-73
2022/03/10 12:17:42;;;;;;;38.53;22.58;;;;;;;;;;5037092;28;20037;-73
2022/03/10 12:20:15;;;;;;;33.80;19.33;;;;;;;;;;5043715;28;20031;-73
2022/03/10 12:23:01;;;;;;;35.72;19.95;;;;;;;;;;5041494;28;21962;-73
2022/03/10 12:25:27;;;;;;;35.80;20.27;;;;;;;;;;5048988;28;20032;-73
2022/03/10 12:27:57;;;;;;;32.40;18.17;;;;;;;;;;5047010;28;20050;-72
2022/03/10 12:30:27;;;;;;;33.95;19.38;;;;;;;;;;5044412;28;20037;-72
2022/03/10 12:32:54;;;;;;;33.72;20.23;;;;;;;;;;5040629;28;20047;-72
2022/03/10 12:35:21;;;;;;;30.33;18.83;;;;;;;;;;5043841;28;20033;-73
2022/03/10 12:37:48;;;;;;;31.85;18.83;;;;;;;;;;5051067;28;20045;-73
2022/03/10 12:40:22;;;;;;;30.77;19.23;;;;;;;;;;5047967;28;20028;-73
2022/03/10 12:42:48;;;;;;;37.53;19.60;;;;;;;;;;5037730;28;20037;-72
2022/03/10 12:45:18;;;;;;;32.00;18.63;;;;;;;;;;5048284;28;20033;-72
2022/03/10 12:47:45;;;;;;;31.73;19.70;;;;;;;;;;5041004;28;20034;-72
2022/03/10 12:50:12;;;;;;;28.83;17.48;;;;;;;;;;5039017;28;20029;-73
2022/03/10 12:52:40;;;;;;;34.72;18.08;;;;;;;;;;5023052;28;20488;-73
2022/03/10 12:55:07;;;;;;;33.47;20.33;;;;;;;;;;5046614;28;20029;-73
2022/03/10 12:57:37;;;;;;;33.13;19.17;;;;;;;;;;5037328;28;20029;-73
2022/03/10 13:00:03;;;;;;;33.92;18.98;;;;;;;;;;5041125;28;20033;-72
2022/03/10 13:02:37;;;;;;;36.17;20.25;;;;;;;;;;5050018;28;20036;-73
2022/03/10 13:05:03;;;;;;;36.58;20.27;;;;;;;;;;5033577;28;20037;-73
2022/03/10 13:07:36;;;;;;;36.63;20.13;;;;;;;;;;5042635;28;20179;-73
2022/03/10 13:10:06;;;;;;;33.35;20.52;;;;;;;;;;5041996;28;20029;-72
2022/03/10 13:12:40;;;;;;;34.55;20.80;;;;;;;;;;5043359;28;20128;-73
2022/03/10 13:15:07;;;;;;;39.33;21.23;;;;;;;;;;5042489;28;20033;-72
2022/03/10 13:17:35;;;;;;;35.10;22.23;;;;;;;;;;5047807;28;20041;-73
2022/03/10 13:20:01;;;;;;;35.30;20.65;;;;;;;;;;5045133;28;20105;-73
2022/03/10 13:22:27;;;;;;;37.60;22.42;;;;;;;;;;5049820;28;20055;-73
2022/03/10 13:24:53;;;;;;;33.42;20.15;;;;;;;;;;5041779;28;20036;-73
2022/03/10 13:27:21;;;;;;;36.97;21.80;;;;;;;;;;5038536;28;20543;-72
2022/03/10 13:29:52;;;;;;;34.17;21.88;;;;;;;;;;5046265;28;20104;-73
2022/03/10 13:32:23;;;;;;;38.05;22.08;;;;;;;;;;5037513;28;20030;-73
2022/03/10 13:34:49;;;;;;;37.75;20.20;;;;;;;;;;5046164;28;20029;-73
2022/03/10 13:37:17;;;;;;;39.47;21.83;;;;;;;;;;5039140;28;20523;-73
2022/03/10 13:39:44;;;;;;;38.60;23.10;;;;;;;;;;5040815;28;20075;-73
2022/03/10 13:42:13;;;;;;;35.63;22.33;;;;;;;;;;5037527;28;20040;-73
2022/03/10 13:44:39;;;;;;;36.58;22.27;;;;;;;;;;5036150;28;20036;-72
2022/03/10 13:47:06;;;;;;;38.08;22.05;;;;;;;;;;5035753;28;20032;-73
2022/03/10 13:49:40;;;;;;;40.35;22.73;;;;;;;;;;5046550;28;20026;-72
2022/03/10 13:52:10;;;;;;;36.53;21.55;;;;;;;;;;5045188;28;20108;-73
2022/03/10 13:54:38;;;;;;;38.33;22.83;;;;;;;;;;5038149;28;20112;-74
2022/03/10 13:57:04;;;;;;;35.78;22.00;;;;;;;;;;5034201;28;20045;-73
2022/03/10 13:59:31;;;;;;;36.50;21.30;;;;;;;;;;5037138;28;20071;-72
2022/03/10 14:01:57;;;;;;;41.20;21.98;;;;;;;;;;5048372;28;20835;-73
2022/03/10 14:04:23;;;;;;;39.30;24.35;;;;;;;;;;5036420;28;20099;-73
2022/03/10 14:06:50;;;;;;;40.92;23.83;;;;;;;;;;5041631;28;20029;-73
2022/03/10 14:09:23;;;;;;;46.55;23.38;;;;;;;;;;5034790;28;20037;-73
2022/03/10 14:11:50;;;;;;;46.10;25.52;;;;;;;;;;5041278;28;20120;-73
2022/03/10 14:14:16;;;;;;;40.35;24.23;;;;;;;;;;5043311;28;20028;-73
2022/03/10 14:16:52;;;;;;;41.88;25.45;;;;;;;;;;5044916;28;20045;-73
2022/03/10 14:19:21;;;;;;;41.72;23.92;;;;;;;;;;5045058;28;20791;-72
2022/03/10 14:21:51;;;;;;;39.28;24.15;;;;;;;;;;5036726;28;20795;-73